Time;durP1;ratioP1;P1;durP2;ratioP2;P2;SDS_P1;SDS_P2;PMS_P1;PMS_P2;Temp;Humidity;BMP_temperature;BMP_pressure;BME280_temperature;BME280_humidity;BME280_pressure;Samples;Min_cycle;Max_cycle;Signal;HPM_P1;HPM_P2
2023/04/21 00:01:55;;;;;;;31.03;15.57;;;;;9.30;95906.00;;;;8317193;28;20209;-73
2023/04/21 00:06:00;;;;;;;29.13;15.47;;;;;9.30;95905.00;;;;8316754;28;20844;-73
2023/04/21 00:10:06;;;;;;;29.37;15.27;;;;;9.30;95902.00;;;;8315086;28;20286;-73
2023/04/21 00:14:09;;;;;;;30.05;16.13;;;;;9.30;95900.00;;;;8308099;28;20296;-73
2023/04/21 00:18:20;;;;;;;29.10;15.80;;;;;9.30;95904.00;;;;8312509;28;20255;-73
2023/04/21 00:22:23;;;;;;;29.33;15.47;;;;;9.30;95896.00;;;;8314320;28;20202;-73
2023/04/21 00:26:32;;;;;;;30.43;15.73;;;;;9.30;95890.00;;;;8314239;28;20205;-72
2023/04/21 00:30:39;;;;;;;30.20;15.87;;;;;9.30;95880.00;;;;8308690;28;20224;-71
2023/04/21 00:34:48;;;;;;;29.63;15.13;;;;;9.30;95881.00;;;;8315993;28;20543;-73
2023/04/21 00:38:53;;;;;;;28.27;15.15;;;;;9.30;95874.00;;;;8313444;28;20232;-73
2023/04/21 00:42:59;;;;;;;26.90;14.33;;;;;9.30;95884.00;;;;8311736;28;20194;-73
2023/04/21 00:47:03;;;;;;;25.33;14.83;;;;;9.30;95877.00;;;;8303198;28;20205;-72
2023/04/21 00:51:10;;;;;;;28.93;15.23;;;;;9.30;95885.00;;;;8313967;28;20220;-72
2023/04/21 00:55:14;;;;;;;30.40;15.47;;;;;9.30;95887.00;;;;8309666;28;20201;-73
2023/04/21 00:59:19;;;;;;;25.90;14.33;;;;;9.30;95894.00;;;;8312576;28;20212;-73
2023/04/21 01:03:22;;;;;;;28.92;15.82;;;;;9.20;95898.00;;;;8308796;28;20283;-72
2023/04/21 01:07:28;;;;;;;28.07;15.37;;;;;9.20;95897.00;;;;8314023;28;20524;-72
2023/04/21 01:11:31;;;;;;;28.53;14.47;;;;;9.20;95903.00;;;;8312202;28;20263;-72
2023/04/21 01:15:34;;;;;;;30.93;16.07;;;;;9.20;95902.00;;;;8307186;28;20644;-72
2023/04/21 01:19:41;;;;;;;30.08;15.80;;;;;9.10;95906.00;;;;8308751;28;20205;-73
2023/04/21 01:23:54;;;;;;;29.07;15.60;;;;;9.10;95906.00;;;;8317073;28;20265;-73
2023/04/21 01:27:58;;;;;;;32.93;15.93;;;;;9.10;95894.00;;;;8315884;28;20201;-73
2023/04/21 01:32:06;;;;;;;28.97;15.67;;;;;9.10;95903.00;;;;8311347;28;20840;-73
2023/04/21 01:36:09;;;;;;;26.23;14.43;;;;;9.10;95896.00;;;;8315441;28;20643;-73
2023/04/21 01:40:15;;;;;;;30.50;16.60;;;;;9.10;95900.00;;;;8307259;28;20277;-73
2023/04/21 01:44:19;;;;;;;28.57;15.60;;;;;9.10;95895.00;;;;8314081;28;20198;-72
2023/04/21 01:48:22;;;;;;;27.25;14.27;;;;;9.10;95893.00;;;;8320284;28;20629;-72
2023/04/21 01:52:27;;;;;;;23.95;14.27;;;;;9.10;95894.00;;;;8320738;28;20236;-72
2023/04/21 01:56:34;;;;;;;25.60;14.37;;;;;9.20;95898.00;;;;8320771;28;20209;-73
2023/04/21 02:00:38;;;;;;;25.53;14.83;;;;;9.20;95894.00;;;;8323807;28;20209;-72
2023/04/21 02:04:41;;;;;;;27.25;13.90;;;;;9.20;95899.00;;;;8317499;28;20238;-73
2023/04/21 02:08:44;;;;;;;27.97;14.37;;;;;9.20;95889.00;;;;8312090;28;20666;-73
2023/04/21 02:13:04;;;;;;;27.27;13.23;;;;;9.20;95891.00;;;;8319084;28;20224;-72
2023/04/21 02:17:09;;;;;;;23.65;12.93;;;;;9.20;95890.00;;;;8294216;28;20202;-73
2023/04/21 02:21:12;;;;;;;27.83;14.45;;;;;9.20;95890.00;;;;8316164;28;20197;-73
2023/04/21 02:25:15;;;;;;;24.38;13.80;;;;;9.20;95891.00;;;;8312624;28;20248;-72
2023/04/21 02:29:22;;;;;;;22.70;12.97;;;;;9.20;95891.00;;;;8308053;28;20198;-72
2023/04/21 02:33:26;;;;;;;24.60;14.25;;;;;9.20;95890.00;;;;8314436;28;20205;-72
2023/04/21 02:37:30;;;;;;;27.48;14.18;;;;;9.20;95888.00;;;;8312102;28;20194;-72
2023/04/21 02:41:35;;;;;;;24.10;13.75;;;;;9.20;95884.00;;;;8316012;28;20889;-73
2023/04/21 02:45:40;;;;;;;26.90;15.27;;;;;9.20;95879.00;;;;8321912;28;20194;-72
2023/04/21 02:49:45;;;;;;;27.17;15.40;;;;;9.30;95885.00;;;;8314907;28;20228;-72
2023/04/21 02:53:51;;;;;;;23.47;13.43;;;;;9.20;95885.00;;;;8316254;28;20245;-73
2023/04/21 02:57:55;;;;;;;27.37;14.57;;;;;9.20;95887.00;;;;8317222;28;20194;-73
2023/04/21 03:01:59;;;;;;;26.37;15.60;;;;;9.10;95886.00;;;;8332422;22;20233;-72
2023/04/21 03:06:06;;;;;;;30.70;15.93;;;;;9.10;95885.00;;;;8284452;28;20225;-73
2023/04/21 03:10:13;;;;;;;30.40;15.87;;;;;9.00;95889.00;;;;8278946;28;20237;-72
2023/04/21 03:14:16;;;;;;;25.75;15.23;;;;;8.80;95894.00;;;;8285173;28;20194;-72
2023/04/21 03:18:21;;;;;;;27.37;15.10;;;;;8.80;95913.00;;;;8284246;28;20226;-73
2023/04/21 03:22:28;;;;;;;30.85;16.80;;;;;8.60;95906.00;;;;8288869;28;20205;-72
2023/04/21 03:26:32;;;;;;;30.37;15.50;;;;;8.60;95908.00;;;;8288209;28;20228;-73
2023/04/21 03:30:37;;;;;;;36.10;16.67;;;;;8.50;95903.00;;;;8288624;28;20268;-72
2023/04/21 03:34:41;;;;;;;34.87;17.20;;;;;8.50;95905.00;;;;8283620;28;20228;-72
2023/04/21 03:38:48;;;;;;;33.37;18.67;;;;;8.50;95902.00;;;;8290214;28;20229;-72
2023/04/21 03:42:54;;;;;;;32.87;16.03;;;;;8.50;95911.00;;;;8287264;28;20206;-72
2023/04/21 03:47:04;;;;;;;33.67;15.67;;;;;8.50;95901.00;;;;8287456;28;20611;-72
2023/04/21 03:51:08;;;;;;;28.63;16.10;;;;;8.60;95906.00;;;;8268936;28;20703;-71
2023/04/21 03:55:14;;;;;;;34.10;15.47;;;;;8.60;95899.00;;;;8286349;28;20194;-73
2023/04/21 03:59:21;;;;;;;30.10;15.57;;;;;8.70;95905.00;;;;8287986;28;20717;-73
2023/04/21 04:03:28;;;;;;;30.73;15.60;;;;;8.70;95895.00;;;;8262094;28;20690;-71
2023/04/21 04:07:34;;;;;;;25.30;14.23;;;;;8.70;95896.00;;;;8250505;28;20778;-71
2023/04/21 04:11:38;;;;;;;28.80;14.73;;;;;8.70;95910.00;;;;8252779;28;20279;-73
2023/04/21 04:15:43;;;;;;;27.92;14.57;;;;;8.60;95907.00;;;;8250556;28;20194;-74
2023/04/21 04:19:46;;;;;;;29.77;15.77;;;;;8.60;95908.00;;;;8231696;28;20206;-73
2023/04/21 04:23:54;;;;;;;31.73;15.57;;;;;8.50;95907.00;;;;8246645;28;20611;-76
2023/04/21 04:27:57;;;;;;;28.73;14.90;;;;;8.50;95900.00;;;;8246937;28;20198;-75
2023/04/21 04:32:02;;;;;;;26.10;14.07;;;;;8.50;95907.00;;;;8254416;28;20281;-76
2023/04/21 04:36:09;;;;;;;31.53;16.60;;;;;8.50;95908.00;;;;8253221;28;20230;-75
2023/04/21 04:40:14;;;;;;;29.50;15.63;;;;;8.60;95909.00;;;;8245701;28;20198;-75
2023/04/21 04:44:24;;;;;;;30.33;14.40;;;;;8.60;95921.00;;;;8245589;28;20191;-75
2023/04/21 04:48:30;;;;;;;33.27;16.00;;;;;8.60;95918.00;;;;8248510;28;20206;-75
2023/04/21 04:52:33;;;;;;;29.80;15.53;;;;;8.60;95922.00;;;;8243928;28;20231;-74
2023/04/21 04:56:39;;;;;;;29.43;15.80;;;;;8.50;95926.00;;;;8249318;28;20203;-75
2023/04/21 05:00:44;;;;;;;34.00;15.90;;;;;8.50;95927.00;;;;8248148;28;20722;-76
2023/04/21 05:04:48;;;;;;;33.83;16.30;;;;;8.50;95916.00;;;;8247120;28;20202;-75
2023/04/21 05:08:56;;;;;;;30.67;16.03;;;;;8.50;95924.00;;;;8248921;28;20240;-75
2023/04/21 05:13:00;;;;;;;34.73;17.63;;;;;8.60;95930.00;;;;8240114;28;20231;-74
2023/04/21 05:17:04;;;;;;;27.30;15.47;;;;;8.60;95919.00;;;;8239794;28;20290;-73
2023/04/21 05:21:10;;;;;;;36.57;18.23;;;;;8.70;95922.00;;;;8243474;28;20690;-74
2023/04/21 05:25:16;;;;;;;34.87;16.63;;;;;8.80;95924.00;;;;8225927;28;20652;-74
2023/04/21 05:29:21;;;;;;;34.10;18.53;;;;;8.90;95920.00;;;;8247468;28;20261;-74
2023/04/21 05:33:25;;;;;;;26.40;15.00;;;;;9.10;95917.00;;;;8232521;28;20218;-75
2023/04/21 05:37:30;;;;;;;30.67;15.70;;;;;9.20;95921.00;;;;8232094;28;20199;-75
2023/04/21 05:41:35;;;;;;;30.30;15.00;;;;;9.40;95930.00;;;;8249801;28;20199;-74
2023/04/21 05:45:40;;;;;;;33.35;16.20;;;;;9.60;95942.00;;;;8242505;28;20203;-76
2023/04/21 05:49:48;;;;;;;28.33;14.70;;;;;9.80;95938.00;;;;8251006;28;20202;-74
2023/04/21 05:53:54;;;;;;;29.20;15.80;;;;;10.00;95933.00;;;;8246258;28;20289;-74
2023/04/21 05:58:01;;;;;;;29.85;15.30;;;;;10.10;95922.00;;;;8245598;28;20199;-75
2023/04/21 06:02:05;;;;;;;26.90;13.48;;;;;10.30;95931.00;;;;8258645;28;20289;-74
2023/04/21 06:06:10;;;;;;;25.88;14.35;;;;;10.40;95935.00;;;;8280083;28;20714;-75
2023/04/21 06:10:14;;;;;;;24.02;12.98;;;;;10.60;95927.00;;;;8276474;28;20253;-75
2023/04/21 06:14:18;;;;;;;25.23;13.27;;;;;10.80;95937.00;;;;8282947;28;20227;-75
2023/04/21 06:18:23;;;;;;;26.70;14.88;;;;;10.90;95936.00;;;;8278914;28;20214;-75
2023/04/21 06:22:28;;;;;;;26.17;14.57;;;;;11.10;95942.00;;;;8262986;28;20611;-75
2023/04/21 06:26:35;;;;;;;29.10;14.43;;;;;11.30;95940.00;;;;8273437;28;20202;-75
2023/04/21 06:30:43;;;;;;;25.25;14.13;;;;;11.40;95936.00;;;;8270678;28;20191;-75
2023/04/21 06:34:48;;;;;;;24.35;13.63;;;;;11.50;95941.00;;;;8265883;28;20213;-74
2023/04/21 06:38:51;;;;;;;22.55;12.65;;;;;11.60;95932.00;;;;8276540;28;20209;-76
2023/04/21 06:42:56;;;;;;;23.55;12.50;;;;;11.90;95921.00;;;;8279729;28;20210;-73
2023/04/21 06:47:04;;;;;;;22.35;11.60;;;;;12.10;95929.00;;;;8287665;28;20253;-75
2023/04/21 06:51:09;;;;;;;20.50;11.68;;;;;12.30;95926.00;;;;8284795;28;20268;-76
2023/04/21 06:55:12;;;;;;;18.15;10.88;;;;;12.50;95941.00;;;;8271869;28;20251;-76
2023/04/21 06:59:21;;;;;;;22.48;11.93;;;;;12.70;95937.00;;;;8278842;28;20601;-75
2023/04/21 07:03:27;;;;;;;18.13;11.20;;;;;13.00;95941.00;;;;8280480;28;20819;-75
2023/04/21 07:07:32;;;;;;;19.95;11.07;;;;;13.10;95936.00;;;;8280156;28;20209;-75
2023/04/21 07:11:35;;;;;;;16.10;11.25;;;;;13.30;95938.00;;;;8279728;28;20240;-75
2023/04/21 07:15:38;;;;;;;18.55;11.40;;;;;13.60;95928.00;;;;8271567;28;20211;-73
2023/04/21 07:19:41;;;;;;;21.65;10.70;;;;;14.40;95943.00;;;;8264546;28;20197;-75
2023/04/21 07:23:46;;;;;;;18.67;11.13;;;;;15.00;95942.00;;;;8262824;28;20211;-75
2023/04/21 07:27:51;;;;;;;15.70;10.52;;;;;15.60;95947.00;;;;8265759;28;20821;-74
2023/04/21 07:31:59;;;;;;;16.05;10.32;;;;;16.00;95947.00;;;;8271368;28;20294;-75
2023/04/21 07:36:02;;;;;;;14.23;10.07;;;;;16.60;95946.00;;;;8280891;28;20198;-75
2023/04/21 07:40:09;;;;;;;13.07;8.90;;;;;17.10;95938.00;;;;8276995;28;20206;-74
2023/04/21 07:44:12;;;;;;;14.25;9.15;;;;;17.40;95953.00;;;;8280206;28;20993;-75
2023/04/21 07:48:18;;;;;;;14.95;8.88;;;;;17.60;95948.00;;;;8277778;28;20217;-76
2023/04/21 07:52:21;;;;;;;12.13;9.15;;;;;17.50;95949.00;;;;8277391;28;20218;-76
2023/04/21 07:56:28;;;;;;;10.43;7.60;;;;;17.70;95960.00;;;;8279902;28;20198;-76
2023/04/21 08:00:31;;;;;;;10.60;8.32;;;;;18.20;95955.00;;;;8276682;28;20210;-76
2023/04/21 08:04:34;;;;;;;11.40;8.02;;;;;18.70;95964.00;;;;8257352;28;20632;-75
2023/04/21 08:08:51;;;;;;;12.27;7.72;;;;;18.70;95967.00;;;;8280348;28;20241;-76
2023/04/21 08:12:56;;;;;;;9.52;7.22;;;;;18.90;95963.00;;;;8264601;28;20255;-77
2023/04/21 08:16:59;;;;;;;9.00;6.40;;;;;19.00;95960.00;;;;8277873;28;20599;-76
2023/04/21 08:21:05;;;;;;;9.25;7.00;;;;;19.50;95972.00;;;;8269164;28;20679;-77
2023/04/21 08:25:08;;;;;;;9.48;7.45;;;;;20.00;95955.00;;;;8277494;28;20210;-76
2023/04/21 08:29:15;;;;;;;10.00;7.25;;;;;20.40;95961.00;;;;8272625;28;20241;-77
2023/04/21 08:33:20;;;;;;;7.15;5.43;;;;;20.70;95967.00;;;;8264828;28;20226;-76
2023/04/21 08:37:30;;;;;;;12.25;5.68;;;;;20.60;95977.00;;;;8270128;28;20246;-77
2023/04/21 08:41:34;;;;;;;7.13;5.38;;;;;20.60;95970.00;;;;8277235;28;20226;-76
2023/04/21 08:45:40;;;;;;;6.90;5.03;;;;;20.50;95963.00;;;;8274586;28;20206;-76
2023/04/21 08:49:43;;;;;;;7.30;5.53;;;;;20.50;95973.00;;;;8275754;28;20237;-77
2023/04/21 08:53:47;;;;;;;7.47;5.68;;;;;20.70;95971.00;;;;8265476;28;20277;-77
2023/04/21 08:57:50;;;;;;;6.95;5.90;;;;;20.70;95963.00;;;;8267313;28;20276;-76
2023/04/21 09:02:12;;;;;;;8.68;5.72;;;;;20.50;95971.00;;;;8276698;28;20493;-77
2023/04/21 09:06:15;;;;;;;12.35;6.30;;;;;20.20;95964.00;;;;8277878;28;20236;-78
2023/04/21 09:10:23;;;;;;;14.27;6.35;;;;;20.40;95973.00;;;;8270779;28;20245;-78
2023/04/21 09:14:34;;;;;;;5.90;5.20;;;;;20.80;95960.00;;;;8273792;28;20300;-76
2023/04/21 09:18:39;;;;;;;5.22;4.72;;;;;21.30;95962.00;;;;8275398;28;20275;-77
2023/04/21 09:22:42;;;;;;;6.85;5.93;;;;;21.50;95971.00;;;;8278222;28;20576;-78
2023/04/21 09:26:50;;;;;;;6.32;4.97;;;;;22.00;95975.00;;;;8263410;28;20260;-77
2023/04/21 09:30:55;;;;;;;8.50;4.70;;;;;22.30;95974.00;;;;8255034;28;20224;-74
2023/04/21 09:35:05;;;;;;;8.27;4.50;;;;;22.60;95970.00;;;;8276678;28;20229;-74
2023/04/21 09:39:08;;;;;;;4.72;4.20;;;;;22.90;95975.00;;;;8277079;28;20194;-75
2023/04/21 09:43:14;;;;;;;5.65;4.07;;;;;23.20;95973.00;;;;8271880;28;20207;-76
2023/04/21 09:47:17;;;;;;;5.45;4.07;;;;;23.10;95975.00;;;;8256566;28;20199;-75
2023/04/21 09:51:25;;;;;;;4.45;4.05;;;;;23.00;95957.00;;;;8261636;28;20276;-75
2023/04/21 09:55:51;;;;;;;5.57;3.65;;;;;22.90;95959.00;;;;8276765;28;20230;-76
2023/04/21 09:59:59;;;;;;;6.65;4.13;;;;;22.10;95962.00;;;;8280450;28;20210;-75
2023/04/21 10:04:05;;;;;;;5.55;3.72;;;;;21.70;95959.00;;;;8277481;28;20230;-76
2023/04/21 10:08:11;;;;;;;6.57;4.18;;;;;22.00;95964.00;;;;8286273;28;20294;-76
2023/04/21 10:12:15;;;;;;;5.15;4.38;;;;;22.30;95959.00;;;;8282165;28;20230;-75
2023/04/21 10:16:22;;;;;;;4.85;4.25;;;;;22.90;95961.00;;;;8280675;28;20574;-81
2023/04/21 10:20:29;;;;;;;7.25;4.15;;;;;23.10;95957.00;;;;8281792;28;20280;-80
2023/04/21 10:24:46;;;;;;;4.57;4.10;;;;;23.10;95950.00;;;;8278146;28;20285;-76
2023/04/21 10:28:56;;;;;;;4.38;3.95;;;;;23.10;95952.00;;;;8285774;28;20244;-76
2023/04/21 10:33:03;;;;;;;4.70;4.15;;;;;23.40;95946.00;;;;8278398;28;20257;-75
2023/04/21 10:37:14;;;;;;;4.63;4.22;;;;;23.40;95953.00;;;;8284345;28;20198;-75
2023/04/21 10:41:29;;;;;;;4.25;3.90;;;;;23.00;95945.00;;;;8281116;28;20199;-75
2023/04/21 10:45:32;;;;;;;5.22;4.40;;;;;23.00;95954.00;;;;8278032;28;20241;-75
2023/04/21 10:49:39;;;;;;;4.78;4.38;;;;;23.00;95945.00;;;;8285922;28;20206;-76
2023/04/21 10:53:44;;;;;;;4.57;4.18;;;;;23.10;95947.00;;;;8282573;28;20229;-75
2023/04/21 10:57:49;;;;;;;6.30;4.55;;;;;23.60;95947.00;;;;8280723;28;20253;-76
2023/04/21 11:01:56;;;;;;;5.57;4.15;;;;;23.80;95944.00;;;;8273393;28;20301;-76
2023/04/21 11:05:59;;;;;;;5.15;3.53;;;;;23.70;95944.00;;;;8274393;28;20272;-76
2023/04/21 11:10:06;;;;;;;5.00;4.03;;;;;23.40;95942.00;;;;8282898;28;20659;-75
2023/04/21 11:14:11;;;;;;;5.10;3.63;;;;;22.80;95933.00;;;;8278234;28;20237;-76
2023/04/21 11:18:14;;;;;;;6.13;3.42;;;;;23.40;95932.00;;;;8277057;28;20195;-76
2023/04/21 11:22:24;;;;;;;4.10;3.45;;;;;24.20;95931.00;;;;8275749;28;20234;-76
2023/04/21 11:26:31;;;;;;;5.43;3.72;;;;;24.80;95927.00;;;;8276557;28;20281;-75
2023/04/21 11:30:42;;;;;;;5.43;3.42;;;;;25.10;95921.00;;;;8275223;28;20202;-77
2023/04/21 11:34:45;;;;;;;3.38;3.08;;;;;25.10;95918.00;;;;8274570;28;20696;-76
2023/04/21 11:38:49;;;;;;;3.13;2.90;;;;;25.80;95918.00;;;;8288236;28;20296;-77
2023/04/21 11:42:54;;;;;;;3.65;2.90;;;;;26.20;95918.00;;;;8286480;28;20206;-77
2023/04/21 11:46:58;;;;;;;4.20;3.45;;;;;26.50;95909.00;;;;8280955;28;20201;-77
2023/04/21 11:51:15;;;;;;;3.60;3.30;;;;;26.50;95914.00;;;;8279945;28;20701;-78
2023/04/21 11:55:18;;;;;;;5.40;3.78;;;;;25.70;95911.00;;;;8279700;28;20222;-77
2023/04/21 11:59:25;;;;;;;6.82;4.22;;;;;24.70;95913.00;;;;8274159;28;20373;-78
2023/04/21 12:03:30;;;;;;;3.92;3.58;;;;;24.00;95904.00;;;;8284477;28;20221;-77
2023/04/21 12:07:38;;;;;;;3.70;2.67;;;;;23.60;95901.00;;;;8268332;28;20221;-78
2023/04/21 12:11:41;;;;;;;3.38;3.13;;;;;23.30;95906.00;;;;8287097;28;20733;-78
2023/04/21 12:15:45;;;;;;;3.45;3.17;;;;;23.00;95885.00;;;;8285841;28;20226;-77
2023/04/21 12:19:51;;;;;;;2.72;2.53;;;;;22.70;95891.00;;;;8280037;28;20202;-78
2023/04/21 12:23:54;;;;;;;3.00;2.78;;;;;22.40;95888.00;;;;8286122;28;20202;-78
2023/04/21 12:28:00;;;;;;;3.83;2.70;;;;;22.40;95892.00;;;;8277923;28;20240;-77
2023/04/21 12:32:05;;;;;;;3.10;2.80;;;;;22.60;95889.00;;;;8282684;28;20207;-77
2023/04/21 12:36:10;;;;;;;3.50;2.63;;;;;22.60;95885.00;;;;8279886;28;20757;-77
2023/04/21 12:40:21;;;;;;;3.30;3.00;;;;;22.70;95888.00;;;;8281925;28;20277;-78
2023/04/21 12:44:25;;;;;;;9.43;3.67;;;;;22.70;95877.00;;;;8278083;28;20202;-78
2023/04/21 12:48:33;;;;;;;3.08;2.88;;;;;22.50;95873.00;;;;8276495;28;20197;-78
2023/04/21 12:52:38;;;;;;;7.38;2.95;;;;;22.30;95867.00;;;;8265517;28;20349;-77
2023/04/21 12:56:41;;;;;;;2.88;2.67;;;;;22.50;95866.00;;;;8283987;28;20222;-76
2023/04/21 13:00:45;;;;;;;3.88;2.85;;;;;22.30;95870.00;;;;8277580;28;20559;-76
2023/04/21 13:04:49;;;;;;;2.83;2.70;;;;;22.40;95879.00;;;;8283551;28;20225;-75
2023/04/21 13:08:57;;;;;;;4.43;3.65;;;;;22.50;95862.00;;;;8283496;28;20242;-76
2023/04/21 13:13:03;;;;;;;5.00;3.33;;;;;22.60;95869.00;;;;8281972;28;20652;-76
2023/04/21 13:17:06;;;;;;;3.80;2.78;;;;;22.80;95877.00;;;;8281423;28;20871;-76
2023/04/21 13:21:09;;;;;;;3.45;3.20;;;;;23.00;95869.00;;;;8279388;28;20285;-76
2023/04/21 13:25:15;;;;;;;3.22;3.03;;;;;23.00;95867.00;;;;8272484;28;20297;-77
2023/04/21 13:29:22;;;;;;;4.40;3.63;;;;;23.00;95866.00;;;;8283505;28;20194;-76
2023/04/21 13:33:25;;;;;;;3.55;3.17;;;;;23.30;95863.00;;;;8279423;28;20276;-75
2023/04/21 13:37:29;;;;;;;3.97;3.67;;;;;23.80;95864.00;;;;8283152;28;20191;-76
2023/04/21 13:41:34;;;;;;;3.65;3.15;;;;;24.50;95858.00;;;;8283524;28;20202;-77
2023/04/21 13:45:40;;;;;;;3.35;3.05;;;;;25.20;95850.00;;;;8284524;28;20201;-76
2023/04/21 13:49:44;;;;;;;3.28;3.03;;;;;26.10;95858.00;;;;8289917;28;20202;-78
2023/04/21 13:53:48;;;;;;;5.95;2.75;;;;;26.60;95850.00;;;;8284276;28;20731;-76
2023/04/21 13:57:52;;;;;;;4.85;3.13;;;;;27.00;95848.00;;;;8276262;28;20194;-79
2023/04/21 14:01:56;;;;;;;5.53;2.75;;;;;27.10;95854.00;;;;8287446;28;20320;-77
2023/04/21 14:06:04;;;;;;;3.00;1.98;;;;;27.10;95854.00;;;;8281927;28;20225;-77
2023/04/21 14:10:09;;;;;;;3.88;2.15;;;;;27.00;95851.00;;;;8280298;28;20190;-76
2023/04/21 14:14:14;;;;;;;2.95;1.92;;;;;27.10;95841.00;;;;8280023;28;20232;-76
2023/04/21 14:18:37;;;;;;;2.50;2.40;;;;;27.20;95834.00;;;;8279403;28;20643;-76
2023/04/21 14:22:40;;;;;;;3.45;2.45;;;;;27.40;95839.00;;;;8283654;28;20198;-75
2023/04/21 14:26:49;;;;;;;2.13;2.03;;;;;27.30;95828.00;;;;8274293;28;20880;-75
2023/04/21 14:30:56;;;;;;;2.45;2.13;;;;;27.20;95823.00;;;;8273843;28;20210;-75
2023/04/21 14:35:02;;;;;;;2.67;2.50;;;;;27.10;95829.00;;;;8282971;28;20234;-77
2023/04/21 14:39:05;;;;;;;2.42;2.33;;;;;26.90;95826.00;;;;8280434;28;20210;-76
2023/04/21 14:43:11;;;;;;;2.72;2.35;;;;;26.80;95819.00;;;;8285080;28;20544;-76
2023/04/21 14:47:16;;;;;;;2.35;2.05;;;;;26.60;95817.00;;;;8280285;28;20623;-76
2023/04/21 14:51:20;;;;;;;2.08;1.98;;;;;26.50;95817.00;;;;8270204;28;20252;-80
2023/04/21 14:55:24;;;;;;;2.33;2.15;;;;;26.50;95808.00;;;;8281307;28;20230;-77
2023/04/21 14:59:27;;;;;;;2.30;2.20;;;;;26.50;95803.00;;;;8275826;28;20198;-77
2023/04/21 15:03:32;;;;;;;1.85;1.85;;;;;26.40;95809.00;;;;8288636;28;20317;-75
2023/04/21 15:07:39;;;;;;;2.50;1.95;;;;;26.30;95805.00;;;;8263963;28;20234;-77
2023/04/21 15:11:46;;;;;;;1.90;1.80;;;;;26.10;95799.00;;;;8272371;28;20607;-76
2023/04/21 15:15:50;;;;;;;2.08;1.98;;;;;26.10;95805.00;;;;8289336;28;20560;-77
2023/04/21 15:19:55;;;;;;;1.83;1.80;;;;;26.10;95800.00;;;;8287848;28;20210;-77
2023/04/21 15:23:59;;;;;;;1.75;1.70;;;;;25.90;95792.00;;;;8289630;28;20198;-77
2023/04/21 15:28:06;;;;;;;2.00;1.90;;;;;25.90;95790.00;;;;8289454;28;20210;-77
2023/04/21 15:32:13;;;;;;;1.98;1.60;;;;;25.90;95784.00;;;;8290896;28;20874;-77
2023/04/21 15:36:18;;;;;;;3.22;1.70;;;;;25.70;95784.00;;;;8288534;28;20218;-76
2023/04/21 15:40:21;;;;;;;1.95;1.88;;;;;25.60;95785.00;;;;8288672;28;20200;-77
2023/04/21 15:44:25;;;;;;;2.35;1.95;;;;;25.50;95777.00;;;;8287324;28;20281;-78
2023/04/21 15:48:31;;;;;;;2.15;2.05;;;;;25.30;95771.00;;;;8283129;28;20212;-77
2023/04/21 15:52:36;;;;;;;2.13;2.03;;;;;25.30;95771.00;;;;8268771;28;20655;-77
2023/04/21 15:56:43;;;;;;;2.08;1.98;;;;;25.40;95762.00;;;;8282375;28;20229;-78
2023/04/21 16:00:46;;;;;;;2.17;2.08;;;;;25.40;95757.00;;;;8280273;28;20205;-77
2023/04/21 16:04:51;;;;;;;2.40;2.28;;;;;25.40;95772.00;;;;8280420;28;20241;-76
2023/04/21 16:08:56;;;;;;;2.10;2.00;;;;;25.60;95768.00;;;;8264125;28;20793;-75
2023/04/21 16:13:00;;;;;;;2.20;2.10;;;;;25.70;95770.00;;;;8277920;28;20202;-77
2023/04/21 16:17:03;;;;;;;2.47;2.03;;;;;25.80;95768.00;;;;8277124;28;20684;-76
2023/04/21 16:21:06;;;;;;;4.72;2.83;;;;;26.20;95770.00;;;;8280785;28;20749;-76
2023/04/21 16:25:12;;;;;;;4.75;3.30;;;;;26.30;95772.00;;;;8277484;28;20632;-76
2023/04/21 16:29:22;;;;;;;10.77;5.70;;;;;26.50;95771.00;;;;8280744;28;20941;-76
2023/04/21 16:33:25;;;;;;;5.75;3.88;;;;;26.60;95761.00;;;;8278762;28;20232;-77
2023/04/21 16:37:29;;;;;;;14.50;7.70;;;;;26.80;95761.00;;;;8270942;28;20218;-77
2023/04/21 16:41:36;;;;;;;4.65;3.42;;;;;27.00;95765.00;;;;8280451;28;20202;-76
2023/04/21 16:45:40;;;;;;;7.20;5.15;;;;;27.10;95760.00;;;;8280166;28;20310;-76
2023/04/21 16:49:44;;;;;;;5.43;4.18;;;;;27.30;95753.00;;;;8275525;28;20226;-76
2023/04/21 16:53:50;;;;;;;5.90;2.70;;;;;27.40;95751.00;;;;8268436;28;20199;-76
2023/04/21 16:57:56;;;;;;;2.72;2.53;;;;;27.40;95748.00;;;;8275434;28;20361;-76
2023/04/21 17:01:59;;;;;;;2.72;2.60;;;;;27.20;95755.00;;;;8275586;28;20234;-77
2023/04/21 17:06:03;;;;;;;2.75;2.55;;;;;27.00;95744.00;;;;8268593;28;20194;-77
2023/04/21 17:10:07;;;;;;;3.35;3.15;;;;;26.80;95740.00;;;;8276428;28;20214;-78
2023/04/21 17:14:22;;;;;;;3.25;2.95;;;;;26.30;95735.00;;;;8281857;28;20210;-77
2023/04/21 17:18:28;;;;;;;2.88;2.67;;;;;25.60;95731.00;;;;8279241;28;20256;-77
2023/04/21 17:22:35;;;;;;;2.20;2.10;;;;;24.40;95736.00;;;;8274612;28;20252;-79
2023/04/21 17:26:39;;;;;;;2.70;2.30;;;;;23.40;95737.00;;;;8278367;28;20250;-76
2023/04/21 17:30:44;;;;;;;3.40;2.20;;;;;22.50;95737.00;;;;8272869;28;20202;-76
2023/04/21 17:34:47;;;;;;;2.45;2.35;;;;;21.90;95741.00;;;;8275276;28;20252;-75
2023/04/21 17:38:54;;;;;;;7.65;2.30;;;;;21.40;95738.00;;;;8278915;28;20202;-77
2023/04/21 17:43:00;;;;;;;3.95;2.60;;;;;20.90;95751.00;;;;8246747;28;20198;-77
2023/04/21 17:47:08;;;;;;;2.85;2.50;;;;;20.50;95746.00;;;;8277752;28;20288;-80
2023/04/21 17:51:24;;;;;;;2.72;2.53;;;;;20.20;95748.00;;;;8271661;28;20262;-75
2023/04/21 17:55:28;;;;;;;3.33;3.00;;;;;19.80;95750.00;;;;8278204;28;20758;-77
2023/04/21 17:59:34;;;;;;;4.68;3.22;;;;;19.60;95752.00;;;;8274498;28;20691;-75
2023/04/21 18:03:40;;;;;;;3.88;2.67;;;;;19.30;95748.00;;;;8262967;28;20647;-77
2023/04/21 18:07:44;;;;;;;3.55;2.75;;;;;19.00;95749.00;;;;8269950;28;20232;-74
2023/04/21 18:11:50;;;;;;;3.83;3.22;;;;;18.70;95756.00;;;;8266151;28;20206;-78
2023/04/21 18:15:53;;;;;;;4.82;3.45;;;;;18.50;95763.00;;;;8277421;28;20285;-76
2023/04/21 18:19:58;;;;;;;5.20;2.97;;;;;18.00;95769.00;;;;8269422;28;20261;-77
2023/04/21 18:24:01;;;;;;;5.10;3.22;;;;;17.50;95769.00;;;;8274229;28;20679;-77
2023/04/21 18:28:06;;;;;;;5.32;3.10;;;;;16.90;95769.00;;;;8283769;28;20202;-75
2023/04/21 18:32:09;;;;;;;4.60;3.10;;;;;16.40;95775.00;;;;8286389;28;20726;-74
2023/04/21 18:36:18;;;;;;;5.93;3.38;;;;;16.00;95772.00;;;;8278164;28;20268;-75
2023/04/21 18:40:23;;;;;;;9.07;3.63;;;;;15.70;95776.00;;;;8282800;28;20303;-75
2023/04/21 18:44:27;;;;;;;8.50;3.90;;;;;15.30;95784.00;;;;8284378;28;20261;-74
2023/04/21 18:48:32;;;;;;;6.50;4.10;;;;;14.90;95784.00;;;;8286726;28;20206;-75
2023/04/21 18:52:38;;;;;;;7.47;3.95;;;;;14.60;95796.00;;;;8276873;28;20210;-74
2023/04/21 18:56:43;;;;;;;6.53;3.97;;;;;14.30;95790.00;;;;8272030;28;20226;-74
2023/04/21 19:00:46;;;;;;;4.35;3.60;;;;;14.10;95795.00;;;;8282274;28;20205;-75
2023/04/21 19:04:49;;;;;;;3.80;3.22;;;;;14.00;95805.00;;;;8278912;28;20695;-74
2023/04/21 19:08:58;;;;;;;3.88;3.50;;;;;13.80;95801.00;;;;8274292;28;20206;-75
2023/04/21 19:13:04;;;;;;;8.00;3.08;;;;;13.60;95803.00;;;;8280807;28;20207;-74
2023/04/21 19:17:09;;;;;;;5.30;4.22;;;;;13.40;95801.00;;;;8282930;28;20247;-75
2023/04/21 19:21:12;;;;;;;8.45;4.20;;;;;13.30;95804.00;;;;8284597;28;20193;-74
2023/04/21 19:25:17;;;;;;;3.83;2.90;;;;;13.30;95815.00;;;;8285496;28;20208;-75
2023/04/21 19:29:21;;;;;;;7.05;5.03;;;;;13.30;95816.00;;;;8283335;28;20271;-75
2023/04/21 19:33:27;;;;;;;6.28;4.72;;;;;13.40;95816.00;;;;8266723;28;21029;-74
2023/04/21 19:37:32;;;;;;;12.15;6.30;;;;;13.20;95821.00;;;;8281571;28;20221;-75
2023/04/21 19:41:40;;;;;;;4.97;3.45;;;;;13.10;95810.00;;;;8260732;28;20213;-75
2023/04/21 19:45:46;;;;;;;6.40;3.85;;;;;12.80;95814.00;;;;8279531;28;20642;-73
2023/04/21 19:49:51;;;;;;;4.20;3.80;;;;;12.50;95813.00;;;;8268783;28;20340;-75
2023/04/21 19:53:55;;;;;;;5.75;3.55;;;;;12.30;95818.00;;;;8276079;28;20632;-74
2023/04/21 19:58:17;;;;;;;4.93;3.50;;;;;12.20;95818.00;;;;8280129;28;20217;-75
2023/04/21 20:02:43;;;;;;;4.03;3.28;;;;;12.00;95825.00;;;;8281965;28;20265;-74
2023/04/21 20:06:49;;;;;;;6.35;4.05;;;;;12.00;95826.00;;;;8278446;28;20206;-74
2023/04/21 20:10:56;;;;;;;3.88;3.58;;;;;12.00;95831.00;;;;8272616;28;20319;-73
2023/04/21 20:15:15;;;;;;;4.47;3.60;;;;;12.30;95842.00;;;;8277671;28;20676;-74
2023/04/21 20:19:21;;;;;;;7.63;4.00;;;;;12.60;95845.00;;;;8274071;28;20650;-73
2023/04/21 20:23:24;;;;;;;6.70;4.13;;;;;13.00;95847.00;;;;8280151;28;20235;-74